Holmesville, Nebraska
Current Conditions -  °F | °C
As of 11:55 AM on Sunday 21 Dec 2014 (Local Time) from KBIE Reporting Station
Overcast Overcast  
Wind Chill: 31°   Ceiling: 900
Heat Index: 40°   Visibility: 7mi
Dew Point: 38°   Wind: 17mph
Humidity: 91%   Direction: 190°S
Pressure: 29.83"   Gusts: 25mph
Location:  40.2°N, 96.66°W
Report Text: KBIE 211755Z AUTO 19015G22KT 7SM OVC009 05/03 A2983 RMK AO2 T00450031 10047 20031
Loading
Personal Weather Stations






























Interactive Weather Map New forecast layout! Learn more

10-Day Weather Forecast

Advertisements
Track Severe Weather on mobile